Sg Express — 3FGV6 — position and weather

sailwx.info

Track history (hours):
 
Tides and Currents Weather Stations Pressure Air Temp Water Temp Dewpoint Dewpoint Depression Visibility Wind Speed Wind Dir Waves Ship Positions

Sg Express

Last reported at 2018-Apr-21 04:19 UTC. Time now 2018-Jun-24 16:35 UTC.
Position S 18°27' E 117°09'.
Warning: this ship's position is months out of date.

Length 295 m; draft 18.1 m.

Type: Cargo ship. MMSI: 351772000.

Date/timePositionNaut miles runAvg speedWind from/ knotsBaromVisibWave heightAir tempDewpointWater temp
2018-Apr-21 04:19S 18°27' E 117°09'2611.3
2018-Apr-21 02:00S 18°53' E 117°13'811.2
2018-Apr-21 01:18S 19°00' E 117°14'310.8
2018-Apr-21 01:00S 19°04' E 117°14'511.0
2018-Apr-21 00:30S 19°09' E 117°15'711.3
2018-Apr-20 23:52S 19°16' E 117°16'411.7
2018-Apr-20 23:30S 19°20' E 117°17'75 4.1
2018-Apr-20 05:13S 20°35' E 117°11'0 0.0
2018-Apr-20 04:13S 20°35' E 117°11'0 0.0
2018-Apr-20 03:55S 20°35' E 117°11'0 0.0
2018-Apr-20 03:25S 20°35' E 117°11'0 0.0
2018-Apr-20 02:31S 20°35' E 117°11'0 0.0
2018-Apr-20 01:19S 20°35' E 117°11'0 0.0
2018-Apr-20 00:55S 20°35' E 117°11'0 0.0
2018-Apr-19 23:37S 20°35' E 117°11'0 0.0
2018-Apr-19 23:07S 20°35' E 117°11'0 0.0
2018-Apr-19 22:43S 20°35' E 117°11'0 0.0
2018-Apr-19 22:25S 20°35' E 117°11'0 0.0
2018-Apr-19 21:49S 20°35' E 117°11'0 0.0
2018-Apr-19 21:07S 20°35' E 117°11'0 0.0
2018-Apr-19 20:49S 20°35' E 117°11'0 0.0
2018-Apr-19 20:25S 20°35' E 117°11'0 0.0
2018-Apr-19 18:01S 20°35' E 117°11'0 0.0
2018-Apr-19 17:37S 20°35' E 117°11'0 0.0
2018-Apr-19 17:19S 20°35' E 117°11'0 0.0
2018-Apr-19 16:43S 20°35' E 117°11'0 0.0
2018-Apr-19 16:25S 20°35' E 117°11'0 0.0
2018-Apr-19 15:37S 20°35' E 117°11'0 0.0
2018-Apr-19 15:13S 20°35' E 117°11'0 0.0
2018-Apr-19 13:55S 20°35' E 117°11'0 0.0
2018-Apr-19 13:19S 20°35' E 117°11'0 0.0
2018-Apr-19 11:55S 20°35' E 117°11'0 0.0
2018-Apr-19 11:25S 20°35' E 117°11'0 0.0
2018-Apr-19 10:55S 20°35' E 117°11'0 0.0
2018-Apr-19 10:25S 20°35' E 117°11'0 0.0
2018-Apr-19 09:55S 20°35' E 117°11'0 0.0
2018-Apr-19 09:25S 20°35' E 117°11'0 0.0
2018-Apr-19 08:07S 20°35' E 117°11'0 0.0
2018-Apr-19 07:43S 20°35' E 117°11'0 0.0
2018-Apr-19 07:25S 20°35' E 117°11'1 3.1
2018-Apr-19 06:58S 20°34' E 117°12'4 8.1
2018-Apr-19 06:29S 20°33' E 117°16'4 7.4
2018-Apr-19 06:00S 20°32' E 117°20'5 9.5
2018-Apr-19 05:30S 20°30' E 117°24'4 7.1
2018-Apr-19 04:59S 20°27' E 117°27'5 9.7
2018-Apr-19 04:28S 20°22' E 117°27'3 6.7
2018-Apr-19 03:56S 20°19' E 117°26'4 8.3
2018-Apr-19 03:30S 20°15' E 117°26'4 8.3
2018-Apr-19 03:00S 20°11' E 117°25'4 7.4
2018-Apr-19 02:30S 20°08' E 117°25'4 7.5
2018-Apr-19 01:59S 20°04' E 117°24'4 8.3
2018-Apr-19 01:29S 19°60' E 117°24'8 8.5
2018-Apr-19 00:34S 19°52' E 117°22'1 3.1
2018-Apr-19 00:14S 19°51' E 117°22'1 5.6
2018-Apr-19 00:00S 19°50' E 117°21'610.4
2018-Apr-18 23:25S 19°44' E 117°20'810.8
2018-Apr-18 22:41S 19°36' E 117°19'310.5
2018-Apr-18 22:24S 19°33' E 117°18'510.5
2018-Apr-18 21:58S 19°29' E 117°17'510.8
2018-Apr-18 21:30S 19°24' E 117°16'510.6
2018-Apr-18 21:00S 19°18' E 117°16'510.4
2018-Apr-18 20:30S 19°13' E 117°15'510.5
2018-Apr-18 20:00S 19°08' E 117°14'510.7
2018-Apr-18 19:30S 19°03' E 117°14'810.4
2018-Apr-18 18:47S 18°55' E 117°13'310.7
2018-Apr-18 18:30S 18°52' E 117°12'1010.5
2018-Apr-18 17:32S 18°42' E 117°11'010.7
2018-Apr-18 17:30S 18°42' E 117°11'510.5
2018-Apr-18 17:00S 18°37' E 117°10'510.5
2018-Apr-18 16:29S 18°31' E 117°09'57012.6
2018-Apr-16 19:05S 09°07' E 115°43'112.5
2018-Apr-16 18:59S 09°06' E 115°43'612.5
2018-Apr-16 18:30S 08°60' E 115°42'612.9
2018-Apr-16 18:00S 08°53' E 115°42'612.1
2018-Apr-16 17:30S 08°47' E 115°42'713.1
2018-Apr-16 17:00S 08°41' E 115°44'612.7
2018-Apr-16 16:30S 08°35' E 115°47'713.9
2018-Apr-16 16:00S 08°29' E 115°50'713.3
2018-Apr-16 15:30S 08°23' E 115°53'713.3
2018-Apr-16 14:59S 08°17' E 115°55'613.1
2018-Apr-16 14:30S 08°11' E 115°58'612.8
2018-Apr-16 14:00S 08°05' E 116°00'712.8
2018-Apr-16 13:28S 07°59' E 116°03'613.4
2018-Apr-16 13:00S 07°53' E 116°05'  
Track history (hours):
 
Tides and Currents Weather Stations Pressure Air Temp Water Temp Dewpoint Dewpoint Depression Visibility Wind Speed Wind Dir Waves Ship Positions

Sg Express

Last reported at 2018-Apr-21 04:19 UTC. Time now 2018-Jun-24 16:35 UTC.
Position S 18°27' E 117°09'.
Warning: this ship's position is months out of date.

Length 295 m; draft 18.1 m.

Type: Cargo ship. MMSI: 351772000.

Date/timePositionNaut miles runAvg speedWind from/ knotsBaromVisibWave heightAir tempDewpointWater temp
2018-Apr-21 04:19S 18°27' E 117°09'2611.3
2018-Apr-21 02:00S 18°53' E 117°13'811.2
2018-Apr-21 01:18S 19°00' E 117°14'310.8
2018-Apr-21 01:00S 19°04' E 117°14'511.0
2018-Apr-21 00:30S 19°09' E 117°15'711.3
2018-Apr-20 23:52S 19°16' E 117°16'411.7
2018-Apr-20 23:30S 19°20' E 117°17'75 4.1
2018-Apr-20 05:13S 20°35' E 117°11'0 0.0
2018-Apr-20 04:13S 20°35' E 117°11'0 0.0
2018-Apr-20 03:55S 20°35' E 117°11'0 0.0
2018-Apr-20 03:25S 20°35' E 117°11'0 0.0
2018-Apr-20 02:31S 20°35' E 117°11'0 0.0
2018-Apr-20 01:19S 20°35' E 117°11'0 0.0
2018-Apr-20 00:55S 20°35' E 117°11'0 0.0
2018-Apr-19 23:37S 20°35' E 117°11'0 0.0
2018-Apr-19 23:07S 20°35' E 117°11'0 0.0
2018-Apr-19 22:43S 20°35' E 117°11'0 0.0
2018-Apr-19 22:25S 20°35' E 117°11'0 0.0
2018-Apr-19 21:49S 20°35' E 117°11'0 0.0
2018-Apr-19 21:07S 20°35' E 117°11'0 0.0
2018-Apr-19 20:49S 20°35' E 117°11'0 0.0
2018-Apr-19 20:25S 20°35' E 117°11'0 0.0
2018-Apr-19 18:01S 20°35' E 117°11'0 0.0
2018-Apr-19 17:37S 20°35' E 117°11'0 0.0
2018-Apr-19 17:19S 20°35' E 117°11'0 0.0
2018-Apr-19 16:43S 20°35' E 117°11'0 0.0
2018-Apr-19 16:25S 20°35' E 117°11'0 0.0
2018-Apr-19 15:37S 20°35' E 117°11'0 0.0
2018-Apr-19 15:13S 20°35' E 117°11'0 0.0
2018-Apr-19 13:55S 20°35' E 117°11'0 0.0
2018-Apr-19 13:19S 20°35' E 117°11'0 0.0
2018-Apr-19 11:55S 20°35' E 117°11'0 0.0
2018-Apr-19 11:25S 20°35' E 117°11'0 0.0
2018-Apr-19 10:55S 20°35' E 117°11'0 0.0
2018-Apr-19 10:25S 20°35' E 117°11'0 0.0
2018-Apr-19 09:55S 20°35' E 117°11'0 0.0
2018-Apr-19 09:25S 20°35' E 117°11'0 0.0
2018-Apr-19 08:07S 20°35' E 117°11'0 0.0
2018-Apr-19 07:43S 20°35' E 117°11'0 0.0
2018-Apr-19 07:25S 20°35' E 117°11'1 3.1
2018-Apr-19 06:58S 20°34' E 117°12'4 8.1
2018-Apr-19 06:29S 20°33' E 117°16'4 7.4
2018-Apr-19 06:00S 20°32' E 117°20'5 9.5
2018-Apr-19 05:30S 20°30' E 117°24'4 7.1
2018-Apr-19 04:59S 20°27' E 117°27'5 9.7
2018-Apr-19 04:28S 20°22' E 117°27'3 6.7
2018-Apr-19 03:56S 20°19' E 117°26'4 8.3
2018-Apr-19 03:30S 20°15' E 117°26'4 8.3
2018-Apr-19 03:00S 20°11' E 117°25'4 7.4
2018-Apr-19 02:30S 20°08' E 117°25'4 7.5
2018-Apr-19 01:59S 20°04' E 117°24'4 8.3
2018-Apr-19 01:29S 19°60' E 117°24'8 8.5
2018-Apr-19 00:34S 19°52' E 117°22'1 3.1
2018-Apr-19 00:14S 19°51' E 117°22'1 5.6
2018-Apr-19 00:00S 19°50' E 117°21'610.4
2018-Apr-18 23:25S 19°44' E 117°20'810.8
2018-Apr-18 22:41S 19°36' E 117°19'310.5
2018-Apr-18 22:24S 19°33' E 117°18'510.5
2018-Apr-18 21:58S 19°29' E 117°17'510.8
2018-Apr-18 21:30S 19°24' E 117°16'510.6
2018-Apr-18 21:00S 19°18' E 117°16'510.4
2018-Apr-18 20:30S 19°13' E 117°15'510.5
2018-Apr-18 20:00S 19°08' E 117°14'510.7
2018-Apr-18 19:30S 19°03' E 117°14'810.4
2018-Apr-18 18:47S 18°55' E 117°13'310.7
2018-Apr-18 18:30S 18°52' E 117°12'1010.5
2018-Apr-18 17:32S 18°42' E 117°11'010.7
2018-Apr-18 17:30S 18°42' E 117°11'510.5
2018-Apr-18 17:00S 18°37' E 117°10'510.5
2018-Apr-18 16:29S 18°31' E 117°09'57012.6
2018-Apr-16 19:05S 09°07' E 115°43'112.5
2018-Apr-16 18:59S 09°06' E 115°43'612.5
2018-Apr-16 18:30S 08°60' E 115°42'612.9
2018-Apr-16 18:00S 08°53' E 115°42'612.1
2018-Apr-16 17:30S 08°47' E 115°42'713.1
2018-Apr-16 17:00S 08°41' E 115°44'612.7
2018-Apr-16 16:30S 08°35' E 115°47'713.9
2018-Apr-16 16:00S 08°29' E 115°50'713.3
2018-Apr-16 15:30S 08°23' E 115°53'713.3
2018-Apr-16 14:59S 08°17' E 115°55'613.1
2018-Apr-16 14:30S 08°11' E 115°58'612.8
2018-Apr-16 14:00S 08°05' E 116°00'712.8
2018-Apr-16 13:28S 07°59' E 116°03'613.4
2018-Apr-16 13:00S 07°53' E 116°05'  

Dump ship's entire track history